sensor_id;sensor_type;location;lat;lon;timestamp;temperature;humidity
36670;DHT22;22662;47.412;9.742;2022-08-19T00:00:29;17.60;99.90
36670;DHT22;22662;47.412;9.742;2022-08-19T00:02:55;17.60;99.90
36670;DHT22;22662;47.412;9.742;2022-08-19T00:05:21;17.60;99.90
36670;DHT22;22662;47.412;9.742;2022-08-19T00:07:48;17.50;99.90
36670;DHT22;22662;47.412;9.742;2022-08-19T00:10:16;17.50;99.90
36670;DHT22;22662;47.412;9.742;2022-08-19T00:12:42;17.50;99.90
36670;DHT22;22662;47.412;9.742;2022-08-19T00:15:11;17.50;99.90
36670;DHT22;22662;47.412;9.742;2022-08-19T00:17:44;17.50;99.90
36670;DHT22;22662;47.412;9.742;2022-08-19T00:20:13;17.60;99.90
36670;DHT22;22662;47.412;9.742;2022-08-19T00:22:42;17.50;99.90
36670;DHT22;22662;47.412;9.742;2022-08-19T00:25:08;17.60;99.90
36670;DHT22;22662;47.412;9.742;2022-08-19T00:27:34;17.60;99.90
36670;DHT22;22662;47.412;9.742;2022-08-19T00:30:00;17.50;99.90
36670;DHT22;22662;47.412;9.742;2022-08-19T00:32:29;17.50;99.90
36670;DHT22;22662;47.412;9.742;2022-08-19T00:34:55;17.40;99.90
36670;DHT22;22662;47.412;9.742;2022-08-19T00:37:22;17.40;99.90
36670;DHT22;22662;47.412;9.742;2022-08-19T00:39:50;17.50;99.90
36670;DHT22;22662;47.412;9.742;2022-08-19T00:42:18;17.50;99.90
36670;DHT22;22662;47.412;9.742;2022-08-19T00:44:44;17.50;99.90
36670;DHT22;22662;47.412;9.742;2022-08-19T00:47:10;17.50;99.90
36670;DHT22;22662;47.412;9.742;2022-08-19T00:49:43;17.50;99.90
36670;DHT22;22662;47.412;9.742;2022-08-19T00:52:21;17.50;99.90
36670;DHT22;22662;47.412;9.742;2022-08-19T00:54:48;17.30;99.90
36670;DHT22;22662;47.412;9.742;2022-08-19T00:57:16;17.30;99.90
36670;DHT22;22662;47.412;9.742;2022-08-19T00:59:46;17.40;99.90
36670;DHT22;22662;47.412;9.742;2022-08-19T01:02:13;17.50;99.90
36670;DHT22;22662;47.412;9.742;2022-08-19T01:04:40;17.50;99.90
36670;DHT22;22662;47.412;9.742;2022-08-19T01:07:05;17.40;99.90
36670;DHT22;22662;47.412;9.742;2022-08-19T01:09:32;17.50;99.90
36670;DHT22;22662;47.412;9.742;2022-08-19T01:11:58;17.50;99.90
36670;DHT22;22662;47.412;9.742;2022-08-19T01:14:24;17.50;99.90
36670;DHT22;22662;47.412;9.742;2022-08-19T01:16:52;17.60;99.90
36670;DHT22;22662;47.412;9.742;2022-08-19T01:21:57;17.70;99.90
36670;DHT22;22662;47.412;9.742;2022-08-19T01:24:23;17.80;99.90
36670;DHT22;22662;47.412;9.742;2022-08-19T01:26:49;17.80;99.90
36670;DHT22;22662;47.412;9.742;2022-08-19T01:29:15;17.90;99.90
36670;DHT22;22662;47.412;9.742;2022-08-19T01:31:41;17.90;99.90
36670;DHT22;22662;47.412;9.742;2022-08-19T01:34:07;17.70;99.90
36670;DHT22;22662;47.412;9.742;2022-08-19T01:36:43;17.60;99.90
36670;DHT22;22662;47.412;9.742;2022-08-19T01:39:22;17.60;99.90
36670;DHT22;22662;47.412;9.742;2022-08-19T01:41:49;17.50;99.90
36670;DHT22;22662;47.412;9.742;2022-08-19T01:44:15;17.50;99.90
36670;DHT22;22662;47.412;9.742;2022-08-19T01:46:42;17.60;99.90
36670;DHT22;22662;47.412;9.742;2022-08-19T01:49:09;17.60;99.90
36670;DHT22;22662;47.412;9.742;2022-08-19T01:51:36;17.70;99.90
36670;DHT22;22662;47.412;9.742;2022-08-19T01:54:02;17.80;99.90
36670;DHT22;22662;47.412;9.742;2022-08-19T01:56:28;17.90;99.90
36670;DHT22;22662;47.412;9.742;2022-08-19T01:59:00;17.90;99.90
36670;DHT22;22662;47.412;9.742;2022-08-19T02:01:27;17.80;99.90
36670;DHT22;22662;47.412;9.742;2022-08-19T02:04:00;17.80;99.90
36670;DHT22;22662;47.412;9.742;2022-08-19T02:06:26;17.80;99.90
36670;DHT22;22662;47.412;9.742;2022-08-19T02:08:52;17.70;99.90
36670;DHT22;22662;47.412;9.742;2022-08-19T02:11:25;17.70;99.90
36670;DHT22;22662;47.412;9.742;2022-08-19T02:13:53;17.70;99.90
36670;DHT22;22662;47.412;9.742;2022-08-19T02:16:19;17.80;99.90
36670;DHT22;22662;47.412;9.742;2022-08-19T02:18:46;17.80;99.90
36670;DHT22;22662;47.412;9.742;2022-08-19T02:21:16;17.70;99.90
36670;DHT22;22662;47.412;9.742;2022-08-19T02:23:42;17.70;99.90
36670;DHT22;22662;47.412;9.742;2022-08-19T02:26:08;17.70;99.90
36670;DHT22;22662;47.412;9.742;2022-08-19T02:28:35;17.60;99.90
36670;DHT22;22662;47.412;9.742;2022-08-19T02:31:02;17.60;99.90
36670;DHT22;22662;47.412;9.742;2022-08-19T02:33:29;17.60;99.90
36670;DHT22;22662;47.412;9.742;2022-08-19T02:35:55;17.60;99.90
36670;DHT22;22662;47.412;9.742;2022-08-19T02:38:20;17.80;99.90
36670;DHT22;22662;47.412;9.742;2022-08-19T02:41:22;17.80;99.90
36670;DHT22;22662;47.412;9.742;2022-08-19T02:43:48;17.90;99.90
36670;DHT22;22662;47.412;9.742;2022-08-19T02:46:24;17.90;99.90
36670;DHT22;22662;47.412;9.742;2022-08-19T02:48:52;17.90;99.90
36670;DHT22;22662;47.412;9.742;2022-08-19T02:51:23;17.90;99.90
36670;DHT22;22662;47.412;9.742;2022-08-19T02:53:49;17.80;99.90
36670;DHT22;22662;47.412;9.742;2022-08-19T02:56:15;17.80;99.90
36670;DHT22;22662;47.412;9.742;2022-08-19T02:58:42;17.80;99.90
36670;DHT22;22662;47.412;9.742;2022-08-19T03:01:08;17.70;99.90
36670;DHT22;22662;47.412;9.742;2022-08-19T03:03:35;17.60;99.90
36670;DHT22;22662;47.412;9.742;2022-08-19T03:06:11;17.60;99.90
36670;DHT22;22662;47.412;9.742;2022-08-19T03:08:39;17.60;99.90
36670;DHT22;22662;47.412;9.742;2022-08-19T03:11:05;17.70;99.90
36670;DHT22;22662;47.412;9.742;2022-08-19T03:13:32;17.70;99.90
36670;DHT22;22662;47.412;9.742;2022-08-19T03:15:58;17.80;99.90
36670;DHT22;22662;47.412;9.742;2022-08-19T03:18:24;17.80;99.90
36670;DHT22;22662;47.412;9.742;2022-08-19T03:20:52;17.80;99.90
36670;DHT22;22662;47.412;9.742;2022-08-19T03:23:22;17.80;99.90
36670;DHT22;22662;47.412;9.742;2022-08-19T03:25:50;17.80;99.90
36670;DHT22;22662;47.412;9.742;2022-08-19T03:28:17;17.70;99.90
36670;DHT22;22662;47.412;9.742;2022-08-19T03:30:58;17.60;99.90
36670;DHT22;22662;47.412;9.742;2022-08-19T03:33:25;17.60;99.90
36670;DHT22;22662;47.412;9.742;2022-08-19T03:36:09;17.60;99.90
36670;DHT22;22662;47.412;9.742;2022-08-19T03:38:37;17.80;99.90
36670;DHT22;22662;47.412;9.742;2022-08-19T03:41:06;17.80;99.90
36670;DHT22;22662;47.412;9.742;2022-08-19T03:43:34;17.70;99.90
36670;DHT22;22662;47.412;9.742;2022-08-19T03:46:10;17.70;99.90
36670;DHT22;22662;47.412;9.742;2022-08-19T03:48:37;17.80;99.90
36670;DHT22;22662;47.412;9.742;2022-08-19T03:51:04;17.70;99.90
36670;DHT22;22662;47.412;9.742;2022-08-19T03:53:31;17.70;99.90
36670;DHT22;22662;47.412;9.742;2022-08-19T03:55:59;17.60;99.90
36670;DHT22;22662;47.412;9.742;2022-08-19T03:58:29;17.50;99.90
36670;DHT22;22662;47.412;9.742;2022-08-19T04:00:56;17.50;99.90
36670;DHT22;22662;47.412;9.742;2022-08-19T04:03:23;17.50;99.90
36670;DHT22;22662;47.412;9.742;2022-08-19T04:05:50;17.50;99.90
36670;DHT22;22662;47.412;9.742;2022-08-19T04:08:16;17.60;99.90
36670;DHT22;22662;47.412;9.742;2022-08-19T04:10:46;17.50;99.90
36670;DHT22;22662;47.412;9.742;2022-08-19T04:13:13;17.60;99.90
36670;DHT22;22662;47.412;9.742;2022-08-19T04:15:41;17.70;99.90
36670;DHT22;22662;47.412;9.742;2022-08-19T04:18:10;17.80;99.90
36670;DHT22;22662;47.412;9.742;2022-08-19T04:20:44;17.70;99.90
36670;DHT22;22662;47.412;9.742;2022-08-19T04:23:11;17.80;99.90
36670;DHT22;22662;47.412;9.742;2022-08-19T04:25:39;17.60;99.90
36670;DHT22;22662;47.412;9.742;2022-08-19T04:28:06;17.60;99.90
36670;DHT22;22662;47.412;9.742;2022-08-19T04:30:55;17.60;99.90
36670;DHT22;22662;47.412;9.742;2022-08-19T04:33:24;17.60;99.90
36670;DHT22;22662;47.412;9.742;2022-08-19T04:35:51;17.70;99.90
36670;DHT22;22662;47.412;9.742;2022-08-19T04:38:20;17.70;99.90
36670;DHT22;22662;47.412;9.742;2022-08-19T04:40:50;17.80;99.90
36670;DHT22;22662;47.412;9.742;2022-08-19T04:43:36;17.70;99.90
36670;DHT22;22662;47.412;9.742;2022-08-19T04:46:10;17.80;99.90
36670;DHT22;22662;47.412;9.742;2022-08-19T04:48:37;17.80;99.90
36670;DHT22;22662;47.412;9.742;2022-08-19T04:51:07;17.80;99.90
36670;DHT22;22662;47.412;9.742;2022-08-19T04:53:35;17.70;99.90
36670;DHT22;22662;47.412;9.742;2022-08-19T04:56:06;17.70;99.90
36670;DHT22;22662;47.412;9.742;2022-08-19T04:58:33;17.60;99.90
36670;DHT22;22662;47.412;9.742;2022-08-19T05:00:59;17.60;99.90
36670;DHT22;22662;47.412;9.742;2022-08-19T05:03:26;17.60;99.90
36670;DHT22;22662;47.412;9.742;2022-08-19T05:05:52;17.60;99.90
36670;DHT22;22662;47.412;9.742;2022-08-19T05:08:20;17.60;99.90
36670;DHT22;22662;47.412;9.742;2022-08-19T05:10:50;17.60;99.90
36670;DHT22;22662;47.412;9.742;2022-08-19T05:13:17;17.60;99.90
36670;DHT22;22662;47.412;9.742;2022-08-19T05:15:52;17.60;99.90
36670;DHT22;22662;47.412;9.742;2022-08-19T05:18:19;17.70;99.90
36670;DHT22;22662;47.412;9.742;2022-08-19T05:21:11;17.70;99.90
36670;DHT22;22662;47.412;9.742;2022-08-19T05:23:56;17.80;99.90
36670;DHT22;22662;47.412;9.742;2022-08-19T05:26:23;17.80;99.90
36670;DHT22;22662;47.412;9.742;2022-08-19T05:28:49;17.80;99.90
36670;DHT22;22662;47.412;9.742;2022-08-19T05:31:15;17.80;99.90
36670;DHT22;22662;47.412;9.742;2022-08-19T05:33:41;17.70;99.90
36670;DHT22;22662;47.412;9.742;2022-08-19T05:36:07;17.50;99.90
36670;DHT22;22662;47.412;9.742;2022-08-19T05:38:34;17.40;99.90
36670;DHT22;22662;47.412;9.742;2022-08-19T05:41:09;17.30;99.90
36670;DHT22;22662;47.412;9.742;2022-08-19T05:43:35;17.30;99.90
36670;DHT22;22662;47.412;9.742;2022-08-19T05:46:01;17.40;99.90
36670;DHT22;22662;47.412;9.742;2022-08-19T05:48:27;17.40;99.90
36670;DHT22;22662;47.412;9.742;2022-08-19T05:50:53;17.50;99.90
36670;DHT22;22662;47.412;9.742;2022-08-19T05:53:19;17.50;99.90
36670;DHT22;22662;47.412;9.742;2022-08-19T05:55:45;17.60;99.90
36670;DHT22;22662;47.412;9.742;2022-08-19T05:58:10;17.60;99.90
36670;DHT22;22662;47.412;9.742;2022-08-19T06:00:37;17.50;99.90
36670;DHT22;22662;47.412;9.742;2022-08-19T06:03:03;17.40;99.90
36670;DHT22;22662;47.412;9.742;2022-08-19T06:05:32;17.40;99.90
36670;DHT22;22662;47.412;9.742;2022-08-19T06:07:58;17.40;99.90
36670;DHT22;22662;47.412;9.742;2022-08-19T06:10:24;17.30;99.90
36670;DHT22;22662;47.412;9.742;2022-08-19T06:12:52;17.40;99.90
36670;DHT22;22662;47.412;9.742;2022-08-19T06:15:18;17.40;99.90
36670;DHT22;22662;47.412;9.742;2022-08-19T06:17:44;17.30;99.90
36670;DHT22;22662;47.412;9.742;2022-08-19T06:20:12;17.40;99.90
36670;DHT22;22662;47.412;9.742;2022-08-19T06:22:44;17.50;99.90
36670;DHT22;22662;47.412;9.742;2022-08-19T06:25:12;17.60;99.90
36670;DHT22;22662;47.412;9.742;2022-08-19T06:27:37;17.60;99.90
36670;DHT22;22662;47.412;9.742;2022-08-19T06:30:04;17.50;99.90
36670;DHT22;22662;47.412;9.742;2022-08-19T06:32:30;17.40;99.90
36670;DHT22;22662;47.412;9.742;2022-08-19T06:34:56;17.40;99.90
36670;DHT22;22662;47.412;9.742;2022-08-19T06:37:22;17.40;99.90
36670;DHT22;22662;47.412;9.742;2022-08-19T06:39:48;17.40;99.90
36670;DHT22;22662;47.412;9.742;2022-08-19T06:42:14;17.50;99.90
36670;DHT22;22662;47.412;9.742;2022-08-19T06:44:45;17.40;99.90
36670;DHT22;22662;47.412;9.742;2022-08-19T06:47:13;17.30;99.90
36670;DHT22;22662;47.412;9.742;2022-08-19T06:49:39;17.30;99.90
36670;DHT22;22662;47.412;9.742;2022-08-19T06:52:06;17.30;99.90
36670;DHT22;22662;47.412;9.742;2022-08-19T06:54:32;17.40;99.90
36670;DHT22;22662;47.412;9.742;2022-08-19T06:56:58;17.40;99.90
36670;DHT22;22662;47.412;9.742;2022-08-19T06:59:27;17.40;99.90
36670;DHT22;22662;47.412;9.742;2022-08-19T07:01:56;17.40;99.90
36670;DHT22;22662;47.412;9.742;2022-08-19T07:04:28;17.30;99.90
36670;DHT22;22662;47.412;9.742;2022-08-19T07:07:09;17.30;99.90
36670;DHT22;22662;47.412;9.742;2022-08-19T07:09:37;17.30;99.90
36670;DHT22;22662;47.412;9.742;2022-08-19T07:12:05;17.30;99.90
36670;DHT22;22662;47.412;9.742;2022-08-19T07:14:32;17.30;99.90
36670;DHT22;22662;47.412;9.742;2022-08-19T07:17:05;17.20;99.90
36670;DHT22;22662;47.412;9.742;2022-08-19T07:19:31;17.10;99.90
36670;DHT22;22662;47.412;9.742;2022-08-19T07:21:57;17.20;99.90
36670;DHT22;22662;47.412;9.742;2022-08-19T07:24:26;17.20;99.90
36670;DHT22;22662;47.412;9.742;2022-08-19T07:26:55;17.20;99.90
36670;DHT22;22662;47.412;9.742;2022-08-19T07:29:22;17.30;99.90
36670;DHT22;22662;47.412;9.742;2022-08-19T07:31:52;17.30;99.90
36670;DHT22;22662;47.412;9.742;2022-08-19T07:34:22;17.20;99.90
36670;DHT22;22662;47.412;9.742;2022-08-19T07:36:49;17.20;99.90
36670;DHT22;22662;47.412;9.742;2022-08-19T07:39:29;17.10;99.90
36670;DHT22;22662;47.412;9.742;2022-08-19T07:41:57;16.90;99.90
36670;DHT22;22662;47.412;9.742;2022-08-19T07:44:24;16.70;99.90
36670;DHT22;22662;47.412;9.742;2022-08-19T07:46:53;16.60;99.90
36670;DHT22;22662;47.412;9.742;2022-08-19T07:49:20;16.70;99.90
36670;DHT22;22662;47.412;9.742;2022-08-19T07:51:48;16.70;99.90
36670;DHT22;22662;47.412;9.742;2022-08-19T07:54:15;16.80;99.90
36670;DHT22;22662;47.412;9.742;2022-08-19T07:56:41;16.90;99.90
36670;DHT22;22662;47.412;9.742;2022-08-19T07:59:07;16.80;99.90
36670;DHT22;22662;47.412;9.742;2022-08-19T08:01:34;16.80;99.90
36670;DHT22;22662;47.412;9.742;2022-08-19T08:04:01;16.80;99.90
36670;DHT22;22662;47.412;9.742;2022-08-19T08:06:45;16.80;99.90
36670;DHT22;22662;47.412;9.742;2022-08-19T08:09:33;16.80;99.90
36670;DHT22;22662;47.412;9.742;2022-08-19T08:12:05;16.80;99.90
36670;DHT22;22662;47.412;9.742;2022-08-19T08:14:44;16.80;99.90
36670;DHT22;22662;47.412;9.742;2022-08-19T08:17:13;16.90;99.90
36670;DHT22;22662;47.412;9.742;2022-08-19T08:19:41;16.90;99.90
36670;DHT22;22662;47.412;9.742;2022-08-19T08:22:08;16.90;99.90
36670;DHT22;22662;47.412;9.742;2022-08-19T08:24:54;17.00;99.90
36670;DHT22;22662;47.412;9.742;2022-08-19T08:27:24;17.00;99.90
36670;DHT22;22662;47.412;9.742;2022-08-19T08:29:50;16.90;99.90
36670;DHT22;22662;47.412;9.742;2022-08-19T08:32:15;16.90;99.90
36670;DHT22;22662;47.412;9.742;2022-08-19T08:34:42;17.00;99.90
36670;DHT22;22662;47.412;9.742;2022-08-19T08:37:08;17.00;99.90
36670;DHT22;22662;47.412;9.742;2022-08-19T08:39:34;17.00;99.90
36670;DHT22;22662;47.412;9.742;2022-08-19T08:42:22;17.00;99.90
36670;DHT22;22662;47.412;9.742;2022-08-19T08:45:06;17.00;99.90
36670;DHT22;22662;47.412;9.742;2022-08-19T08:47:40;17.10;99.90
36670;DHT22;22662;47.412;9.742;2022-08-19T08:50:16;17.00;99.90
36670;DHT22;22662;47.412;9.742;2022-08-19T08:52:46;17.00;99.90
36670;DHT22;22662;47.412;9.742;2022-08-19T08:55:16;17.00;99.90
36670;DHT22;22662;47.412;9.742;2022-08-19T09:00:26;17.00;99.90
36670;DHT22;22662;47.412;9.742;2022-08-19T09:02:54;17.00;99.90
36670;DHT22;22662;47.412;9.742;2022-08-19T09:05:21;17.10;99.90
36670;DHT22;22662;47.412;9.742;2022-08-19T09:08:08;17.00;99.90
36670;DHT22;22662;47.412;9.742;2022-08-19T09:10:43;17.00;99.90
36670;DHT22;22662;47.412;9.742;2022-08-19T09:16:07;17.10;99.90
36670;DHT22;22662;47.412;9.742;2022-08-19T09:18:50;17.00;99.90
36670;DHT22;22662;47.412;9.742;2022-08-19T09:21:21;17.10;99.90
36670;DHT22;22662;47.412;9.742;2022-08-19T09:23:51;17.10;99.90
36670;DHT22;22662;47.412;9.742;2022-08-19T09:26:20;17.20;99.90
36670;DHT22;22662;47.412;9.742;2022-08-19T09:28:48;17.20;99.90
36670;DHT22;22662;47.412;9.742;2022-08-19T09:31:18;17.20;99.90
36670;DHT22;22662;47.412;9.742;2022-08-19T09:33:45;17.40;99.90
36670;DHT22;22662;47.412;9.742;2022-08-19T09:36:17;17.30;99.90
36670;DHT22;22662;47.412;9.742;2022-08-19T09:38:44;17.50;99.90
36670;DHT22;22662;47.412;9.742;2022-08-19T09:41:23;17.70;99.90
36670;DHT22;22662;47.412;9.742;2022-08-19T09:43:51;17.70;99.90
36670;DHT22;22662;47.412;9.742;2022-08-19T09:46:19;17.80;99.90
36670;DHT22;22662;47.412;9.742;2022-08-19T09:48:47;17.80;99.90
36670;DHT22;22662;47.412;9.742;2022-08-19T09:51:20;17.70;99.90
36670;DHT22;22662;47.412;9.742;2022-08-19T09:53:47;17.60;99.90
36670;DHT22;22662;47.412;9.742;2022-08-19T09:56:17;17.80;99.90
36670;DHT22;22662;47.412;9.742;2022-08-19T09:58:44;17.70;99.90
36670;DHT22;22662;47.412;9.742;2022-08-19T10:01:16;17.80;99.90
36670;DHT22;22662;47.412;9.742;2022-08-19T10:03:43;17.70;99.90
36670;DHT22;22662;47.412;9.742;2022-08-19T10:06:09;17.80;99.90
36670;DHT22;22662;47.412;9.742;2022-08-19T10:08:36;17.80;99.90
36670;DHT22;22662;47.412;9.742;2022-08-19T10:11:03;17.80;99.90
36670;DHT22;22662;47.412;9.742;2022-08-19T10:13:31;17.80;99.90
36670;DHT22;22662;47.412;9.742;2022-08-19T10:16:04;17.90;99.90
36670;DHT22;22662;47.412;9.742;2022-08-19T10:18:31;18.00;99.90
36670;DHT22;22662;47.412;9.742;2022-08-19T10:21:08;18.00;99.90
36670;DHT22;22662;47.412;9.742;2022-08-19T10:23:39;17.90;99.90
36670;DHT22;22662;47.412;9.742;2022-08-19T10:26:06;17.90;99.90
36670;DHT22;22662;47.412;9.742;2022-08-19T10:28:36;17.80;99.90
36670;DHT22;22662;47.412;9.742;2022-08-19T10:31:09;17.80;99.90
36670;DHT22;22662;47.412;9.742;2022-08-19T10:33:35;17.80;99.90
36670;DHT22;22662;47.412;9.742;2022-08-19T10:36:08;17.70;99.90
36670;DHT22;22662;47.412;9.742;2022-08-19T10:38:35;17.60;99.90
36670;DHT22;22662;47.412;9.742;2022-08-19T10:41:15;17.60;99.90
36670;DHT22;22662;47.412;9.742;2022-08-19T10:43:42;17.50;99.90
36670;DHT22;22662;47.412;9.742;2022-08-19T10:46:14;17.50;99.90
36670;DHT22;22662;47.412;9.742;2022-08-19T10:48:42;17.50;99.90
36670;DHT22;22662;47.412;9.742;2022-08-19T10:51:09;17.50;99.90
36670;DHT22;22662;47.412;9.742;2022-08-19T10:53:53;17.30;99.90
36670;DHT22;22662;47.412;9.742;2022-08-19T10:56:19;17.30;99.90
36670;DHT22;22662;47.412;9.742;2022-08-19T10:59:04;17.30;99.90
36670;DHT22;22662;47.412;9.742;2022-08-19T11:01:31;17.30;99.90
36670;DHT22;22662;47.412;9.742;2022-08-19T11:04:02;17.20;99.90
36670;DHT22;22662;47.412;9.742;2022-08-19T11:06:28;17.10;99.90
36670;DHT22;22662;47.412;9.742;2022-08-19T11:08:55;17.00;99.90
36670;DHT22;22662;47.412;9.742;2022-08-19T11:11:22;17.00;99.90
36670;DHT22;22662;47.412;9.742;2022-08-19T11:13:48;16.90;99.90
36670;DHT22;22662;47.412;9.742;2022-08-19T11:16:17;16.90;99.90
36670;DHT22;22662;47.412;9.742;2022-08-19T11:18:49;16.90;99.90
36670;DHT22;22662;47.412;9.742;2022-08-19T11:21:23;16.80;99.90
36670;DHT22;22662;47.412;9.742;2022-08-19T11:23:51;16.70;99.90
36670;DHT22;22662;47.412;9.742;2022-08-19T11:26:19;16.70;99.90
36670;DHT22;22662;47.412;9.742;2022-08-19T11:28:45;16.70;99.90
36670;DHT22;22662;47.412;9.742;2022-08-19T11:31:13;16.70;99.90
36670;DHT22;22662;47.412;9.742;2022-08-19T11:33:39;16.80;99.90
36670;DHT22;22662;47.412;9.742;2022-08-19T11:36:05;16.80;99.90
36670;DHT22;22662;47.412;9.742;2022-08-19T11:38:31;16.80;99.90
36670;DHT22;22662;47.412;9.742;2022-08-19T11:40:59;16.60;99.90
36670;DHT22;22662;47.412;9.742;2022-08-19T11:43:25;16.50;99.90
36670;DHT22;22662;47.412;9.742;2022-08-19T11:45:53;16.50;99.90
36670;DHT22;22662;47.412;9.742;2022-08-19T11:48:19;16.50;99.90
36670;DHT22;22662;47.412;9.742;2022-08-19T11:50:52;16.50;99.90
36670;DHT22;22662;47.412;9.742;2022-08-19T11:53:21;16.50;99.90
36670;DHT22;22662;47.412;9.742;2022-08-19T11:55:47;16.50;99.90
36670;DHT22;22662;47.412;9.742;2022-08-19T11:58:15;16.50;99.90
36670;DHT22;22662;47.412;9.742;2022-08-19T12:00:42;16.50;99.90
36670;DHT22;22662;47.412;9.742;2022-08-19T12:03:08;16.50;99.90
36670;DHT22;22662;47.412;9.742;2022-08-19T12:05:37;16.50;99.90
36670;DHT22;22662;47.412;9.742;2022-08-19T12:08:03;16.40;99.90
36670;DHT22;22662;47.412;9.742;2022-08-19T12:10:29;16.30;99.90
36670;DHT22;22662;47.412;9.742;2022-08-19T12:12:54;16.30;99.90
36670;DHT22;22662;47.412;9.742;2022-08-19T12:15:20;16.30;99.90
36670;DHT22;22662;47.412;9.742;2022-08-19T12:17:46;16.20;99.90
36670;DHT22;22662;47.412;9.742;2022-08-19T12:20:13;16.30;99.90
36670;DHT22;22662;47.412;9.742;2022-08-19T12:22:41;16.30;99.90
36670;DHT22;22662;47.412;9.742;2022-08-19T12:25:09;16.30;99.90
36670;DHT22;22662;47.412;9.742;2022-08-19T12:27:35;16.40;99.90
36670;DHT22;22662;47.412;9.742;2022-08-19T12:30:03;16.40;99.90
36670;DHT22;22662;47.412;9.742;2022-08-19T12:32:29;16.50;99.90
36670;DHT22;22662;47.412;9.742;2022-08-19T12:34:55;16.50;99.90
36670;DHT22;22662;47.412;9.742;2022-08-19T12:37:21;16.70;99.90
36670;DHT22;22662;47.412;9.742;2022-08-19T12:39:47;16.70;99.90
36670;DHT22;22662;47.412;9.742;2022-08-19T12:42:13;16.70;99.90
36670;DHT22;22662;47.412;9.742;2022-08-19T12:44:41;16.70;99.90
36670;DHT22;22662;47.412;9.742;2022-08-19T12:47:09;16.80;99.90
36670;DHT22;22662;47.412;9.742;2022-08-19T12:49:37;16.70;99.90
36670;DHT22;22662;47.412;9.742;2022-08-19T12:52:05;16.60;99.90
36670;DHT22;22662;47.412;9.742;2022-08-19T12:54:31;16.50;99.90
36670;DHT22;22662;47.412;9.742;2022-08-19T12:56:57;16.50;99.90
36670;DHT22;22662;47.412;9.742;2022-08-19T12:59:25;16.60;99.90
36670;DHT22;22662;47.412;9.742;2022-08-19T13:01:51;16.60;99.90
36670;DHT22;22662;47.412;9.742;2022-08-19T13:04:17;16.60;99.90
36670;DHT22;22662;47.412;9.742;2022-08-19T13:06:43;16.70;99.90
36670;DHT22;22662;47.412;9.742;2022-08-19T13:09:09;16.70;99.90
36670;DHT22;22662;47.412;9.742;2022-08-19T13:11:36;16.80;99.90
36670;DHT22;22662;47.412;9.742;2022-08-19T13:14:03;16.80;99.90
36670;DHT22;22662;47.412;9.742;2022-08-19T13:16:29;16.70;99.90
36670;DHT22;22662;47.412;9.742;2022-08-19T13:18:56;16.70;99.90
36670;DHT22;22662;47.412;9.742;2022-08-19T13:21:25;16.70;99.90
36670;DHT22;22662;47.412;9.742;2022-08-19T13:23:52;16.70;99.90
36670;DHT22;22662;47.412;9.742;2022-08-19T13:26:18;16.70;99.90
36670;DHT22;22662;47.412;9.742;2022-08-19T13:28:45;16.70;99.90
36670;DHT22;22662;47.412;9.742;2022-08-19T13:31:34;16.70;99.90
36670;DHT22;22662;47.412;9.742;2022-08-19T13:34:24;16.60;99.90
36670;DHT22;22662;47.412;9.742;2022-08-19T13:36:52;16.50;99.90
36670;DHT22;22662;47.412;9.742;2022-08-19T13:39:18;16.60;99.90
36670;DHT22;22662;47.412;9.742;2022-08-19T13:41:45;16.60;99.90
36670;DHT22;22662;47.412;9.742;2022-08-19T13:44:18;16.60;99.90
36670;DHT22;22662;47.412;9.742;2022-08-19T13:46:46;16.60;99.90
36670;DHT22;22662;47.412;9.742;2022-08-19T13:49:12;16.60;99.90
36670;DHT22;22662;47.412;9.742;2022-08-19T13:51:43;16.60;99.90
36670;DHT22;22662;47.412;9.742;2022-08-19T13:54:10;16.60;99.90
36670;DHT22;22662;47.412;9.742;2022-08-19T13:56:44;16.50;99.90
36670;DHT22;22662;47.412;9.742;2022-08-19T13:59:11;16.40;99.90
36670;DHT22;22662;47.412;9.742;2022-08-19T14:01:37;16.40;99.90
36670;DHT22;22662;47.412;9.742;2022-08-19T14:04:04;16.40;99.90
36670;DHT22;22662;47.412;9.742;2022-08-19T14:06:31;16.40;99.90
36670;DHT22;22662;47.412;9.742;2022-08-19T14:08:57;16.40;99.90
36670;DHT22;22662;47.412;9.742;2022-08-19T14:11:23;16.40;99.90
36670;DHT22;22662;47.412;9.742;2022-08-19T14:13:49;16.40;99.90
36670;DHT22;22662;47.412;9.742;2022-08-19T14:16:16;16.40;99.90
36670;DHT22;22662;47.412;9.742;2022-08-19T14:18:43;16.50;99.90
36670;DHT22;22662;47.412;9.742;2022-08-19T14:21:19;16.40;99.90
36670;DHT22;22662;47.412;9.742;2022-08-19T14:23:46;16.40;99.90
36670;DHT22;22662;47.412;9.742;2022-08-19T14:26:14;16.40;99.90
36670;DHT22;22662;47.412;9.742;2022-08-19T14:28:41;16.40;99.90
36670;DHT22;22662;47.412;9.742;2022-08-19T14:31:08;16.40;99.90
36670;DHT22;22662;47.412;9.742;2022-08-19T14:33:34;16.40;99.90
36670;DHT22;22662;47.412;9.742;2022-08-19T14:36:00;16.50;99.90
36670;DHT22;22662;47.412;9.742;2022-08-19T14:38:26;16.50;99.90
36670;DHT22;22662;47.412;9.742;2022-08-19T14:40:52;16.60;99.90
36670;DHT22;22662;47.412;9.742;2022-08-19T14:43:18;16.60;99.90
36670;DHT22;22662;47.412;9.742;2022-08-19T14:45:44;16.60;99.90
36670;DHT22;22662;47.412;9.742;2022-08-19T14:48:10;16.70;99.90
36670;DHT22;22662;47.412;9.742;2022-08-19T14:50:36;16.60;99.90
36670;DHT22;22662;47.412;9.742;2022-08-19T14:53:07;16.60;99.90
36670;DHT22;22662;47.412;9.742;2022-08-19T14:55:34;16.60;99.90
36670;DHT22;22662;47.412;9.742;2022-08-19T14:58:00;16.70;99.90
36670;DHT22;22662;47.412;9.742;2022-08-19T15:00:27;16.60;99.90
36670;DHT22;22662;47.412;9.742;2022-08-19T15:02:53;16.70;99.90
36670;DHT22;22662;47.412;9.742;2022-08-19T15:05:20;16.70;99.90
36670;DHT22;22662;47.412;9.742;2022-08-19T15:07:46;16.70;99.90
36670;DHT22;22662;47.412;9.742;2022-08-19T15:10:13;16.80;99.90
36670;DHT22;22662;47.412;9.742;2022-08-19T15:12:39;16.70;99.90
36670;DHT22;22662;47.412;9.742;2022-08-19T15:15:08;16.80;99.90
36670;DHT22;22662;47.412;9.742;2022-08-19T15:17:34;16.70;99.90
36670;DHT22;22662;47.412;9.742;2022-08-19T15:20:04;16.70;99.90
36670;DHT22;22662;47.412;9.742;2022-08-19T15:22:30;16.70;99.90
36670;DHT22;22662;47.412;9.742;2022-08-19T15:24:56;16.50;99.90
36670;DHT22;22662;47.412;9.742;2022-08-19T15:27:22;16.50;99.90
36670;DHT22;22662;47.412;9.742;2022-08-19T15:29:48;16.60;99.90
36670;DHT22;22662;47.412;9.742;2022-08-19T15:32:13;16.50;99.90
36670;DHT22;22662;47.412;9.742;2022-08-19T15:34:39;16.50;99.90
36670;DHT22;22662;47.412;9.742;2022-08-19T15:37:06;16.40;99.90
36670;DHT22;22662;47.412;9.742;2022-08-19T15:39:32;16.50;99.90
36670;DHT22;22662;47.412;9.742;2022-08-19T15:41:58;16.50;99.90
36670;DHT22;22662;47.412;9.742;2022-08-19T15:44:28;16.40;99.90
36670;DHT22;22662;47.412;9.742;2022-08-19T15:46:54;16.40;99.90